createdAt,value
2023-04-29T00:00:17.426Z,10.00
2023-04-29T00:01:17.524Z,10.90
2023-04-29T00:02:17.635Z,13.50
2023-04-29T00:03:17.985Z,11.90
2023-04-29T00:04:18.067Z,11.90
2023-04-29T00:05:18.279Z,11.30
2023-04-29T00:06:18.263Z,11.90
2023-04-29T00:07:18.234Z,11.70
2023-04-29T00:08:18.340Z,11.50
2023-04-29T00:09:18.410Z,9.70
2023-04-29T00:10:18.509Z,14.60
2023-04-29T00:11:18.575Z,12.10
2023-04-29T00:12:18.773Z,12.00
2023-04-29T00:13:18.864Z,12.60
2023-04-29T00:14:18.928Z,10.40
2023-04-29T00:15:19.014Z,15.30
2023-04-29T00:16:19.107Z,10.90
2023-04-29T00:17:19.178Z,11.30
2023-04-29T00:18:19.396Z,11.60
2023-04-29T00:19:19.456Z,13.70
2023-04-29T00:20:19.650Z,12.30
2023-04-29T00:21:19.724Z,12.40
2023-04-29T00:22:19.820Z,12.10
2023-04-29T00:23:19.894Z,10.10
2023-04-29T00:24:19.991Z,13.70
2023-04-29T00:25:20.073Z,14.40
2023-04-29T00:26:20.203Z,10.40
2023-04-29T00:27:20.256Z,14.80
2023-04-29T00:28:20.462Z,13.90
2023-04-29T00:29:20.537Z,12.10
2023-04-29T00:30:20.643Z,11.60
2023-04-29T00:31:20.704Z,11.80
2023-04-29T00:32:20.812Z,15.50
2023-04-29T00:33:20.901Z,13.00
2023-04-29T00:34:20.990Z,11.90
2023-04-29T00:35:21.060Z,14.10
2023-04-29T00:36:21.277Z,13.50
2023-04-29T00:37:21.337Z,11.00
2023-04-29T00:38:21.559Z,12.80
2023-04-29T00:39:21.635Z,12.80
2023-04-29T00:40:21.731Z,11.90
2023-04-29T00:41:21.821Z,11.90
2023-04-29T00:42:21.906Z,13.00
2023-04-29T00:43:21.977Z,10.50
2023-04-29T00:44:22.066Z,13.90
2023-04-29T00:45:22.143Z,13.40
2023-04-29T00:46:22.333Z,12.40
2023-04-29T00:47:22.461Z,12.00
2023-04-29T00:48:22.532Z,16.90
2023-04-29T00:49:22.613Z,13.10
2023-04-29T00:50:22.710Z,13.40
2023-04-29T00:51:22.779Z,10.40
2023-04-29T00:52:22.956Z,10.40
2023-04-29T00:53:23.089Z,14.80
2023-04-29T00:54:23.162Z,9.90
2023-04-29T00:55:23.255Z,12.50
2023-04-29T00:56:23.421Z,12.50
2023-04-29T00:57:23.493Z,13.20
2023-04-29T00:58:23.691Z,11.80
2023-04-29T00:59:23.764Z,11.90
2023-04-29T01:00:23.831Z,11.90
2023-04-29T01:01:23.928Z,12.80
2023-04-29T01:02:24.085Z,12.60
2023-04-29T01:03:24.215Z,10.80
2023-04-29T01:04:24.272Z,13.60
2023-04-29T01:05:24.296Z,14.00
2023-04-29T01:06:24.485Z,11.50
2023-04-29T01:07:24.542Z,12.60
2023-04-29T01:08:24.735Z,14.60
2023-04-29T01:09:24.844Z,21.90
2023-04-29T01:10:24.925Z,71.00
2023-04-29T01:11:25.006Z,52.60
2023-04-29T01:12:25.107Z,58.10
2023-04-29T01:13:25.202Z,80.50
2023-04-29T01:14:25.278Z,71.00
2023-04-29T01:15:25.347Z,65.70
2023-04-29T01:16:25.492Z,83.90
2023-04-29T01:17:25.555Z,71.50
2023-04-29T01:18:25.740Z,83.30
2023-04-29T01:19:25.820Z,94.10
2023-04-29T01:20:25.902Z,91.50
2023-04-29T01:21:25.973Z,91.70
2023-04-29T01:22:26.052Z,95.10
2023-04-29T01:23:26.246Z,109.40
2023-04-29T01:24:26.281Z,100.20
2023-04-29T01:25:26.360Z,85.20
2023-04-29T01:26:26.563Z,85.40
2023-04-29T01:27:26.663Z,101.20
2023-04-29T01:28:26.774Z,97.30
2023-04-29T01:29:26.843Z,102.50
2023-04-29T01:30:27.054Z,101.20
2023-04-29T01:31:27.166Z,91.10
2023-04-29T01:32:27.304Z,84.50
2023-04-29T01:33:27.372Z,74.90
2023-04-29T01:34:27.466Z,79.80
2023-04-29T01:35:27.529Z,116.00
2023-04-29T01:36:27.733Z,141.30
2023-04-29T01:37:27.796Z,130.50
2023-04-29T01:38:27.907Z,116.20
2023-04-29T01:39:27.993Z,125.90
2023-04-29T01:40:28.093Z,117.20
2023-04-29T01:41:28.161Z,133.50
2023-04-29T01:42:28.248Z,136.10
2023-04-29T01:43:28.350Z,142.00
2023-04-29T01:44:28.435Z,140.40
2023-04-29T01:45:28.525Z,144.40
2023-04-29T01:46:28.671Z,127.30
2023-04-29T01:47:28.710Z,132.90
2023-04-29T01:48:28.811Z,143.20
2023-04-29T01:49:28.910Z,138.50
2023-04-29T01:50:29.130Z,141.10
2023-04-29T01:51:29.193Z,140.10
2023-04-29T01:52:29.381Z,138.70
2023-04-29T01:53:29.486Z,133.90
2023-04-29T01:54:29.580Z,132.10
2023-04-29T01:55:29.656Z,145.00
2023-04-29T01:56:29.760Z,139.50
2023-04-29T01:57:29.839Z,162.30
2023-04-29T01:58:29.940Z,145.40
2023-04-29T01:59:31.477Z,143.50
2023-04-29T02:00:30.140Z,142.80
2023-04-29T02:01:30.197Z,146.70
2023-04-29T02:02:30.418Z,142.50
2023-04-29T02:03:30.559Z,141.40
2023-04-29T02:04:30.605Z,151.90
2023-04-29T02:05:30.640Z,155.70
2023-04-29T02:06:30.730Z,145.90
2023-04-29T02:07:30.819Z,150.90
2023-04-29T02:08:30.913Z,147.40
2023-04-29T02:09:31.013Z,163.40
2023-04-29T02:10:31.113Z,157.50
2023-04-29T02:11:31.179Z,153.30
2023-04-29T02:12:31.356Z,149.90
2023-04-29T02:13:31.451Z,150.90
2023-04-29T02:14:31.526Z,158.60
2023-04-29T02:15:31.731Z,159.60
2023-04-29T02:16:31.831Z,153.10
2023-04-29T02:17:31.931Z,139.60
2023-04-29T02:18:31.981Z,151.90
2023-04-29T02:19:32.102Z,142.70
2023-04-29T02:20:32.158Z,144.30
2023-04-29T02:21:32.372Z,151.10
2023-04-29T02:22:32.450Z,156.50
2023-04-29T02:23:32.643Z,158.50
2023-04-29T02:24:32.726Z,153.50
2023-04-29T02:25:32.840Z,153.50
2023-04-29T02:26:32.887Z,175.40
2023-04-29T02:27:32.969Z,199.80
2023-04-29T02:28:33.075Z,190.30
2023-04-29T02:29:33.165Z,183.30
2023-04-29T02:30:33.249Z,197.10
2023-04-29T02:31:33.475Z,222.30
2023-04-29T02:32:33.684Z,216.60
2023-04-29T02:33:33.658Z,199.30
2023-04-29T02:34:33.760Z,197.80
2023-04-29T02:35:33.823Z,200.00
2023-04-29T02:36:33.914Z,199.70
2023-04-29T02:37:33.988Z,200.40
2023-04-29T02:38:34.093Z,215.70
2023-04-29T02:39:34.190Z,219.00
2023-04-29T02:40:34.313Z,227.20
2023-04-29T02:41:34.396Z,202.10
2023-04-29T02:42:34.473Z,205.60
2023-04-29T02:43:34.569Z,226.70
2023-04-29T02:44:34.644Z,243.30
2023-04-29T02:45:34.761Z,232.90
2023-04-29T02:46:34.821Z,230.40
2023-04-29T02:47:34.913Z,232.10
2023-04-29T02:48:34.983Z,232.60
2023-04-29T02:49:35.092Z,222.80
2023-04-29T02:50:35.183Z,215.80
2023-04-29T02:51:35.375Z,225.70
2023-04-29T02:52:35.453Z,222.50
2023-04-29T02:53:35.648Z,214.60
2023-04-29T02:54:35.731Z,231.90
2023-04-29T02:55:35.819Z,233.60
2023-04-29T02:56:35.895Z,244.50
2023-04-29T02:57:35.972Z,228.10
2023-04-29T02:58:36.069Z,239.50
2023-04-29T02:59:36.161Z,234.20
2023-04-29T03:00:36.244Z,244.90
2023-04-29T03:01:36.360Z,228.90
2023-04-29T03:02:36.553Z,237.70
2023-04-29T03:03:36.656Z,226.80
2023-04-29T03:04:36.631Z,241.80
2023-04-29T03:05:36.821Z,238.10
2023-04-29T03:06:36.908Z,239.20
2023-04-29T03:07:37.014Z,236.80
2023-04-29T03:08:37.178Z,237.50
2023-04-29T03:09:37.280Z,239.00
2023-04-29T03:10:39.223Z,238.30
2023-04-29T03:11:37.480Z,238.10
2023-04-29T03:12:37.582Z,241.40
2023-04-29T03:13:37.699Z,235.10
2023-04-29T03:14:37.799Z,246.40
2023-04-29T03:15:37.896Z,247.70
2023-04-29T03:16:38.010Z,252.80
2023-04-29T03:17:38.206Z,254.10
2023-04-29T03:18:38.307Z,244.30
2023-04-29T03:19:38.428Z,232.30
2023-04-29T03:20:38.535Z,255.40
2023-04-29T03:21:38.594Z,252.40
2023-04-29T03:22:38.686Z,260.30
2023-04-29T03:23:38.792Z,268.20
2023-04-29T03:24:38.882Z,267.30
2023-04-29T03:25:39.029Z,267.90
2023-04-29T03:26:39.080Z,268.20
2023-04-29T03:27:39.164Z,265.80
2023-04-29T03:28:39.378Z,280.00
2023-04-29T03:29:39.391Z,281.30
2023-04-29T03:30:39.627Z,286.70
2023-04-29T03:31:39.708Z,283.80
2023-04-29T03:32:39.833Z,277.00
2023-04-29T03:33:39.966Z,288.50
2023-04-29T03:34:40.132Z,287.10
2023-04-29T03:35:40.153Z,295.90
2023-04-29T03:36:40.254Z,286.90
2023-04-29T03:37:40.358Z,281.80
2023-04-29T03:38:40.436Z,281.00
2023-04-29T03:39:40.642Z,276.80
2023-04-29T03:40:40.718Z,286.40
2023-04-29T03:41:40.825Z,280.50
2023-04-29T03:42:40.913Z,289.80
2023-04-29T03:43:41.055Z,297.70
2023-04-29T03:44:41.107Z,297.20
2023-04-29T03:45:41.205Z,296.00
2023-04-29T03:46:41.476Z,297.40
2023-04-29T03:47:41.531Z,287.30
2023-04-29T03:48:41.520Z,308.40
2023-04-29T03:49:41.610Z,307.90
2023-04-29T03:50:41.693Z,301.00
2023-04-29T03:51:41.778Z,317.20
2023-04-29T03:52:41.866Z,304.50
2023-04-29T03:53:41.954Z,311.70
2023-04-29T03:54:42.025Z,324.40
2023-04-29T03:55:42.150Z,318.30
2023-04-29T03:56:42.211Z,326.80
2023-04-29T03:57:42.754Z,311.10
2023-04-29T03:58:42.542Z,317.50
2023-04-29T03:59:42.627Z,319.20
2023-04-29T04:00:42.718Z,315.60
2023-04-29T04:01:42.845Z,325.60
2023-04-29T04:02:43.117Z,346.90
2023-04-29T04:03:43.214Z,307.50
2023-04-29T04:04:43.432Z,318.00
2023-04-29T04:05:43.268Z,339.70
2023-04-29T04:06:43.338Z,324.90
2023-04-29T04:07:43.420Z,330.50
2023-04-29T04:08:43.505Z,345.60
2023-04-29T04:09:43.588Z,337.30
2023-04-29T04:10:43.681Z,335.70
2023-04-29T04:11:43.770Z,354.80
2023-04-29T04:12:44.377Z,334.80
2023-04-29T04:13:43.960Z,321.20
2023-04-29T04:14:44.049Z,335.00
2023-04-29T04:15:44.236Z,340.40
2023-04-29T04:16:44.349Z,320.90
2023-04-29T04:17:44.409Z,352.90
2023-04-29T04:18:44.486Z,343.30
2023-04-29T04:19:44.580Z,337.00
2023-04-29T04:20:44.656Z,331.20
2023-04-29T04:21:44.845Z,333.50
2023-04-29T04:22:44.939Z,327.90
2023-04-29T04:23:45.058Z,334.90
2023-04-29T04:24:45.118Z,335.80
2023-04-29T04:25:45.186Z,321.50
2023-04-29T04:26:45.253Z,325.20
2023-04-29T04:27:45.437Z,327.60
2023-04-29T04:28:45.556Z,335.60
2023-04-29T04:29:45.636Z,318.50
2023-04-29T04:30:45.737Z,337.40
2023-04-29T04:31:47.191Z,332.80
2023-04-29T04:32:46.034Z,324.70
2023-04-29T04:33:46.103Z,328.90
2023-04-29T04:34:46.189Z,329.20
2023-04-29T04:35:46.295Z,315.20
2023-04-29T04:36:46.371Z,323.90
2023-04-29T04:37:46.439Z,325.90
2023-04-29T04:38:46.536Z,318.40
2023-04-29T04:39:46.618Z,325.80
2023-04-29T04:40:46.690Z,327.60
2023-04-29T04:41:46.781Z,334.50
2023-04-29T04:42:46.858Z,346.10
2023-04-29T04:43:46.984Z,327.50
2023-04-29T04:44:47.058Z,311.80
2023-04-29T04:45:47.171Z,334.80
2023-04-29T04:46:47.243Z,318.00
2023-04-29T04:47:47.348Z,329.10
2023-04-29T04:48:47.421Z,332.60
2023-04-29T04:49:47.488Z,351.80
2023-04-29T04:50:47.559Z,355.90
2023-04-29T04:51:47.760Z,354.90
2023-04-29T04:52:47.808Z,369.00
2023-04-29T04:53:48.024Z,363.30
2023-04-29T04:54:48.077Z,365.00
2023-04-29T04:55:48.251Z,380.40
2023-04-29T04:56:48.328Z,386.30
2023-04-29T04:57:48.403Z,384.60
2023-04-29T04:58:48.474Z,396.60
2023-04-29T04:59:48.569Z,390.40
2023-04-29T05:00:48.752Z,401.30
2023-04-29T05:01:48.803Z,419.50
2023-04-29T05:02:49.045Z,406.30
2023-04-29T05:03:49.169Z,396.50
2023-04-29T05:04:49.192Z,403.80
2023-04-29T05:05:49.273Z,407.70
2023-04-29T05:06:49.341Z,399.50
2023-04-29T05:07:49.413Z,403.10
2023-04-29T05:08:49.506Z,403.40
2023-04-29T05:09:49.605Z,413.70
2023-04-29T05:10:49.660Z,419.50
2023-04-29T05:11:49.750Z,414.70
2023-04-29T05:12:49.822Z,414.90
2023-04-29T05:13:49.913Z,405.90
2023-04-29T05:14:49.983Z,413.30
2023-04-29T05:15:50.165Z,404.60
2023-04-29T05:16:57.541Z,414.70
2023-04-29T05:17:50.420Z,406.30
2023-04-29T05:18:50.480Z,415.70
2023-04-29T05:19:50.818Z,401.80
2023-04-29T05:20:50.678Z,411.30
2023-04-29T05:21:50.790Z,410.50
2023-04-29T05:22:50.841Z,409.20
2023-04-29T05:23:51.039Z,422.30
2023-04-29T05:24:51.123Z,415.10
2023-04-29T05:25:51.221Z,426.00
2023-04-29T05:26:51.283Z,412.70
2023-04-29T05:27:51.484Z,422.40
2023-04-29T05:28:51.571Z,434.10
2023-04-29T05:29:51.825Z,414.70
2023-04-29T05:30:51.803Z,412.80
2023-04-29T05:31:51.855Z,434.30
2023-04-29T05:32:51.956Z,451.70
2023-04-29T05:33:52.024Z,429.90
2023-04-29T05:34:52.090Z,439.70
2023-04-29T05:35:52.165Z,434.30
2023-04-29T05:36:52.248Z,426.80
2023-04-29T05:37:52.458Z,432.80
2023-04-29T05:38:52.534Z,442.90
2023-04-29T05:39:52.957Z,442.50
2023-04-29T05:40:52.721Z,435.50
2023-04-29T05:41:52.803Z,437.30
2023-04-29T05:42:52.910Z,428.90
2023-04-29T05:43:52.984Z,429.00
2023-04-29T05:44:53.062Z,433.60
2023-04-29T05:45:53.239Z,439.60
2023-04-29T05:46:53.291Z,446.30
2023-04-29T05:47:53.369Z,441.50
2023-04-29T05:48:53.452Z,433.00
2023-04-29T05:49:53.791Z,442.90
2023-04-29T05:50:53.621Z,444.00
2023-04-29T05:51:53.718Z,452.20
2023-04-29T05:52:53.786Z,446.80
2023-04-29T05:53:53.877Z,453.60
2023-04-29T05:54:53.943Z,437.30
2023-04-29T05:55:54.026Z,426.10
2023-04-29T05:56:54.100Z,430.30
2023-04-29T05:57:54.277Z,424.10
2023-04-29T05:58:54.391Z,433.40
2023-04-29T05:59:54.638Z,431.80
2023-04-29T06:00:54.592Z,416.00
2023-04-29T06:01:54.787Z,426.60
2023-04-29T06:02:58.791Z,426.70
2023-04-29T06:03:55.256Z,443.30
2023-04-29T06:04:55.393Z,439.50
2023-04-29T06:05:55.404Z,429.40
2023-04-29T06:06:55.321Z,437.30
2023-04-29T06:07:55.410Z,422.00
2023-04-29T06:08:55.491Z,429.60
2023-04-29T06:09:55.618Z,423.20
2023-04-29T06:10:55.651Z,434.00
2023-04-29T06:11:55.831Z,436.00
2023-04-29T06:12:55.940Z,428.70
2023-04-29T06:13:55.999Z,425.40
2023-04-29T06:14:56.076Z,437.10
2023-04-29T06:15:56.168Z,439.20
2023-04-29T06:16:56.208Z,432.70
2023-04-29T06:17:56.295Z,422.70
2023-04-29T06:18:56.469Z,438.00
2023-04-29T06:19:56.528Z,425.40
2023-04-29T06:20:56.699Z,432.50
2023-04-29T06:21:56.780Z,417.90
2023-04-29T06:22:56.840Z,411.90
2023-04-29T06:23:56.922Z,414.70
2023-04-29T06:24:56.989Z,409.30
2023-04-29T06:25:57.062Z,400.90
2023-04-29T06:26:57.136Z,404.70
2023-04-29T06:27:57.206Z,388.10
2023-04-29T06:28:57.395Z,398.00
2023-04-29T06:29:57.468Z,406.80
2023-04-29T06:30:57.530Z,392.70
2023-04-29T06:31:57.631Z,389.20
2023-04-29T06:32:57.681Z,384.70
2023-04-29T06:33:57.743Z,369.90
2023-04-29T06:34:57.818Z,350.90
2023-04-29T06:35:57.884Z,346.20
2023-04-29T06:36:57.950Z,346.20
2023-04-29T06:37:58.020Z,348.20
2023-04-29T06:38:58.124Z,325.70
2023-04-29T06:39:58.176Z,327.50
2023-04-29T06:40:58.229Z,304.90
2023-04-29T06:41:58.303Z,294.50
2023-04-29T06:42:58.397Z,305.00
2023-04-29T06:43:58.484Z,286.30
2023-04-29T06:44:58.574Z,293.10
2023-04-29T06:45:58.669Z,279.00
2023-04-29T06:46:58.817Z,290.70
2023-04-29T06:47:58.868Z,290.60
2023-04-29T06:48:58.946Z,299.00
2023-04-29T06:49:59.032Z,268.30
2023-04-29T06:50:59.129Z,297.10
2023-04-29T06:51:59.207Z,291.90
2023-04-29T06:52:59.291Z,280.90
2023-04-29T06:53:59.416Z,274.70
2023-04-29T06:54:59.508Z,286.30
2023-04-29T06:55:59.558Z,272.50
2023-04-29T06:56:59.641Z,270.70
2023-04-29T06:57:59.695Z,284.50
2023-04-29T06:58:59.936Z,290.80
2023-04-29T07:00:00.067Z,266.00
2023-04-29T07:01:00.196Z,261.40
2023-04-29T07:02:00.205Z,256.40
2023-04-29T07:03:00.493Z,266.60
2023-04-29T07:04:00.650Z,249.50
2023-04-29T07:05:00.560Z,252.40
2023-04-29T07:06:00.646Z,245.00
2023-04-29T07:07:00.694Z,239.70
2023-04-29T07:08:00.753Z,248.30
2023-04-29T07:09:00.958Z,259.80
2023-04-29T07:10:01.041Z,250.20
2023-04-29T07:11:01.096Z,241.60
2023-04-29T07:12:01.162Z,238.90
2023-04-29T07:13:01.260Z,257.60
2023-04-29T07:14:01.336Z,252.40
2023-04-29T07:15:01.416Z,255.30
2023-04-29T07:16:01.482Z,255.60
2023-04-29T07:17:01.608Z,264.70
2023-04-29T07:18:01.817Z,252.00
2023-04-29T07:19:01.842Z,258.00
2023-04-29T07:20:01.909Z,258.90
2023-04-29T07:21:01.972Z,256.40
2023-04-29T07:22:02.030Z,274.00
2023-04-29T07:23:02.221Z,290.00
2023-04-29T07:24:02.342Z,296.60
2023-04-29T07:25:02.408Z,301.70
2023-04-29T07:26:02.460Z,298.60
2023-04-29T07:27:02.636Z,296.10
2023-04-29T07:28:02.820Z,296.90
2023-04-29T07:29:02.895Z,301.10
2023-04-29T07:30:02.964Z,307.50
2023-04-29T07:31:03.155Z,308.90
2023-04-29T07:32:03.138Z,304.80
2023-04-29T07:33:03.258Z,310.70
2023-04-29T07:34:03.293Z,296.80
2023-04-29T07:35:03.354Z,299.80
2023-04-29T07:36:03.418Z,303.00
2023-04-29T07:37:03.501Z,288.10
2023-04-29T07:38:03.576Z,289.10
2023-04-29T07:39:03.669Z,285.20
2023-04-29T07:40:03.736Z,261.40
2023-04-29T07:41:03.915Z,249.80
2023-04-29T07:42:03.983Z,248.30
2023-04-29T07:43:04.174Z,249.30
2023-04-29T07:44:04.253Z,265.50
2023-04-29T07:45:04.333Z,245.40
2023-04-29T07:46:04.431Z,241.50
2023-04-29T07:47:04.498Z,231.70
2023-04-29T07:48:04.599Z,222.20
2023-04-29T07:49:04.704Z,214.80
2023-04-29T07:50:04.771Z,198.60
2023-04-29T07:51:04.981Z,199.00
2023-04-29T07:52:05.058Z,195.10
2023-04-29T07:53:05.132Z,207.20
2023-04-29T07:54:05.235Z,188.30
2023-04-29T07:55:05.314Z,183.50
2023-04-29T07:56:05.382Z,184.50
2023-04-29T07:57:05.476Z,189.70
2023-04-29T07:58:05.561Z,178.50
2023-04-29T07:59:05.653Z,187.70
2023-04-29T08:00:05.767Z,191.00
2023-04-29T08:01:05.817Z,195.20
2023-04-29T08:02:05.885Z,194.80
2023-04-29T08:03:06.126Z,180.80
2023-04-29T08:04:06.261Z,169.40
2023-04-29T08:05:06.577Z,165.20
2023-04-29T08:06:06.382Z,145.70
2023-04-29T08:07:06.428Z,131.50
2023-04-29T08:08:06.517Z,53.70
2023-04-29T08:09:06.646Z,108.80
2023-04-29T08:10:06.735Z,103.40
2023-04-29T08:11:06.825Z,106.50
2023-04-29T08:12:06.904Z,110.90
2023-04-29T08:13:06.993Z,99.60
2023-04-29T08:14:07.097Z,95.10
2023-04-29T08:15:09.581Z,98.60
2023-04-29T08:16:07.356Z,114.10
2023-04-29T08:17:07.403Z,117.80
2023-04-29T08:18:07.590Z,104.90
2023-04-29T08:19:07.718Z,100.30
2023-04-29T08:20:07.792Z,101.10
2023-04-29T08:21:07.964Z,101.40
2023-04-29T08:22:08.020Z,96.90
2023-04-29T08:23:08.113Z,101.60
2023-04-29T08:24:08.336Z,111.10
2023-04-29T08:25:08.310Z,103.90
2023-04-29T08:26:08.389Z,106.30
2023-04-29T08:27:08.596Z,107.10
2023-04-29T08:28:08.647Z,103.40
2023-04-29T08:29:08.723Z,100.90
2023-04-29T08:30:08.802Z,96.40
2023-04-29T08:31:08.924Z,98.10
2023-04-29T08:32:08.968Z,92.60
2023-04-29T08:33:09.045Z,90.50
2023-04-29T08:34:09.129Z,92.80
2023-04-29T08:35:09.213Z,96.20
2023-04-29T08:36:13.158Z,90.00
2023-04-29T08:37:09.461Z,93.10
2023-04-29T08:38:15.982Z,97.30
2023-04-29T08:39:09.756Z,99.90
2023-04-29T08:40:09.803Z,103.40
2023-04-29T08:41:09.885Z,98.00
2023-04-29T08:42:09.960Z,102.50
2023-04-29T08:43:10.285Z,97.80
2023-04-29T08:44:10.094Z,100.70
2023-04-29T08:45:10.173Z,90.90
2023-04-29T08:46:10.254Z,96.70
2023-04-29T08:47:10.441Z,93.30
2023-04-29T08:48:10.778Z,97.60
2023-04-29T08:49:10.637Z,91.90
2023-04-29T08:50:10.742Z,95.00
2023-04-29T08:51:10.796Z,93.50
2023-04-29T08:52:10.872Z,94.50
2023-04-29T08:53:10.943Z,91.90
2023-04-29T08:54:11.030Z,89.90
2023-04-29T08:55:11.128Z,94.90
2023-04-29T08:56:11.190Z,91.10
2023-04-29T08:57:11.288Z,87.90
2023-04-29T08:58:11.417Z,96.60
2023-04-29T08:59:11.472Z,99.60
2023-04-29T09:00:11.559Z,98.80
2023-04-29T09:01:11.702Z,89.40
2023-04-29T09:02:11.750Z,97.50
2023-04-29T09:03:11.926Z,92.60
2023-04-29T09:04:11.970Z,96.80
2023-04-29T09:05:12.048Z,90.60
2023-04-29T09:06:12.115Z,94.90
2023-04-29T09:07:12.195Z,90.60
2023-04-29T09:08:12.274Z,94.40
2023-04-29T09:09:12.360Z,95.90
2023-04-29T09:10:12.442Z,90.70
2023-04-29T09:11:12.548Z,94.50
2023-04-29T09:12:12.610Z,98.20
2023-04-29T09:13:12.679Z,92.90
2023-04-29T09:14:12.772Z,96.00
2023-04-29T09:15:12.870Z,90.60
2023-04-29T09:16:12.995Z,91.20
2023-04-29T09:17:13.044Z,92.40
2023-04-29T09:18:13.136Z,84.80
2023-04-29T09:19:13.222Z,86.80
2023-04-29T09:20:13.297Z,90.10
2023-04-29T09:21:13.388Z,92.20
2023-04-29T09:22:13.469Z,84.10
2023-04-29T09:23:13.551Z,80.10
2023-04-29T09:24:13.668Z,83.20
2023-04-29T09:25:13.748Z,85.00
2023-04-29T09:26:13.821Z,85.80
2023-04-29T09:27:13.958Z,80.20
2023-04-29T09:28:14.117Z,84.80
2023-04-29T09:29:14.361Z,94.00
2023-04-29T09:30:14.225Z,95.50
2023-04-29T09:31:14.356Z,87.20
2023-04-29T09:32:14.390Z,92.20
2023-04-29T09:33:14.454Z,86.10
2023-04-29T09:34:14.782Z,90.40
2023-04-29T09:35:14.671Z,92.70
2023-04-29T09:36:14.750Z,89.00
2023-04-29T09:37:14.846Z,92.40
2023-04-29T09:38:14.927Z,95.60
2023-04-29T09:39:15.044Z,95.20
2023-04-29T09:40:15.077Z,96.40
2023-04-29T09:41:15.148Z,99.40
2023-04-29T09:42:15.217Z,107.90
2023-04-29T09:43:15.322Z,107.00
2023-04-29T09:44:15.430Z,110.90
2023-04-29T09:45:15.498Z,110.80
2023-04-29T09:46:15.594Z,116.00
2023-04-29T09:47:15.680Z,121.70
2023-04-29T09:48:15.766Z,122.50
2023-04-29T09:49:15.851Z,130.10
2023-04-29T09:50:15.913Z,126.60
2023-04-29T09:51:16.232Z,127.40
2023-04-29T09:52:16.155Z,133.50
2023-04-29T09:53:16.226Z,143.70
2023-04-29T09:54:16.313Z,141.90
2023-04-29T09:55:16.370Z,154.80
2023-04-29T09:56:16.484Z,147.70
2023-04-29T09:57:16.576Z,147.90
2023-04-29T09:58:16.640Z,150.20
2023-04-29T09:59:16.743Z,148.20
2023-04-29T10:00:16.856Z,151.40
2023-04-29T10:01:16.963Z,145.40
2023-04-29T10:02:16.995Z,149.30
2023-04-29T10:03:17.134Z,152.70
2023-04-29T10:04:17.253Z,163.70
2023-04-29T10:05:17.552Z,160.30
2023-04-29T10:06:17.444Z,161.50
2023-04-29T10:07:17.820Z,160.20
2023-04-29T10:08:17.586Z,148.50
2023-04-29T10:09:17.783Z,150.70
2023-04-29T10:10:17.870Z,156.60
2023-04-29T10:11:17.956Z,152.90
2023-04-29T10:12:18.045Z,154.40
2023-04-29T10:13:18.116Z,156.00
2023-04-29T10:14:18.247Z,164.90
2023-04-29T10:15:18.324Z,157.70
2023-04-29T10:16:18.434Z,159.30
2023-04-29T10:17:18.488Z,153.20
2023-04-29T10:18:18.564Z,154.10
2023-04-29T10:19:18.690Z,160.50
2023-04-29T10:20:18.752Z,154.80
2023-04-29T10:21:19.024Z,149.00
2023-04-29T10:22:18.904Z,158.10
2023-04-29T10:23:18.976Z,164.10
2023-04-29T10:24:19.054Z,153.70
2023-04-29T10:25:19.143Z,154.60
2023-04-29T10:26:19.193Z,164.20
2023-04-29T10:27:19.278Z,169.90
2023-04-29T10:28:19.372Z,163.90
2023-04-29T10:29:19.473Z,171.30
2023-04-29T10:30:19.589Z,165.20
2023-04-29T10:31:19.657Z,176.00
2023-04-29T10:32:19.673Z,178.50
2023-04-29T10:33:19.894Z,171.30
2023-04-29T10:34:19.975Z,191.30
2023-04-29T10:35:20.125Z,176.90
2023-04-29T10:36:20.225Z,162.00
2023-04-29T10:37:20.297Z,154.90
2023-04-29T10:38:20.364Z,145.50
2023-04-29T10:39:20.433Z,138.30
2023-04-29T10:40:20.482Z,127.90
2023-04-29T10:41:20.561Z,123.40
2023-04-29T10:42:20.621Z,124.40
2023-04-29T10:43:20.672Z,118.90
2023-04-29T10:44:20.851Z,112.40
2023-04-29T10:45:20.941Z,119.30
2023-04-29T10:46:20.987Z,128.50
2023-04-29T10:47:21.224Z,127.50
2023-04-29T10:48:21.184Z,136.80
2023-04-29T10:49:22.514Z,142.90
2023-04-29T10:50:21.344Z,144.80
2023-04-29T10:51:21.441Z,150.40
2023-04-29T10:52:21.486Z,143.20
2023-04-29T10:53:21.558Z,135.60
2023-04-29T10:54:21.668Z,119.10
2023-04-29T10:55:21.723Z,106.50
2023-04-29T10:56:21.892Z,112.00
2023-04-29T10:57:21.996Z,108.80
2023-04-29T10:58:22.040Z,100.00
2023-04-29T10:59:22.168Z,102.10
2023-04-29T11:00:22.251Z,100.50
2023-04-29T11:01:22.373Z,84.60
2023-04-29T11:02:22.446Z,88.30
2023-04-29T11:03:22.606Z,76.90
2023-04-29T11:04:22.788Z,80.40
2023-04-29T11:05:22.876Z,76.50
2023-04-29T11:06:22.943Z,74.80
2023-04-29T11:07:23.007Z,73.70
2023-04-29T11:08:23.116Z,65.90
2023-04-29T11:09:23.157Z,72.00
2023-04-29T11:10:23.233Z,67.40
2023-04-29T11:11:23.348Z,65.50
2023-04-29T11:12:23.617Z,66.40
2023-04-29T11:13:23.471Z,58.80
2023-04-29T11:14:23.560Z,59.00
2023-04-29T11:15:23.619Z,60.40
2023-04-29T11:16:23.755Z,57.10
2023-04-29T11:18:21.934Z,49.20
2023-04-29T11:19:22.102Z,49.60
2023-04-29T11:20:23.852Z,48.30
2023-04-29T11:21:24.020Z,49.80
2023-04-29T11:22:22.490Z,45.60
2023-04-29T11:23:22.568Z,43.10
2023-04-29T11:24:22.725Z,46.60
2023-04-29T11:25:22.820Z,42.20
2023-04-29T11:26:22.884Z,38.70
2023-04-29T11:27:22.983Z,39.80
2023-04-29T11:28:23.065Z,40.40
2023-04-29T11:29:23.198Z,37.20
2023-04-29T11:30:23.273Z,38.30
2023-04-29T11:31:23.425Z,37.70
2023-04-29T11:32:23.574Z,35.30
2023-04-29T11:33:23.646Z,39.40
2023-04-29T11:34:23.697Z,32.70
2023-04-29T11:35:23.786Z,35.90
2023-04-29T11:36:23.851Z,33.90
2023-04-29T11:37:23.944Z,34.70
2023-04-29T11:38:24.032Z,33.80
2023-04-29T11:39:24.109Z,31.00
2023-04-29T11:40:24.197Z,31.90
2023-04-29T11:41:24.300Z,28.60
2023-04-29T11:42:24.383Z,28.40
2023-04-29T11:43:24.457Z,27.10
2023-04-29T11:44:24.532Z,25.90
2023-04-29T11:45:24.630Z,28.50
2023-04-29T11:46:24.714Z,29.90
2023-04-29T11:47:24.886Z,27.00
2023-04-29T11:48:24.924Z,28.80
2023-04-29T11:49:25.110Z,29.50
2023-04-29T11:50:25.194Z,27.50
2023-04-29T11:51:25.273Z,28.30
2023-04-29T11:52:25.328Z,26.30
2023-04-29T11:53:25.487Z,24.30
2023-04-29T11:54:25.598Z,24.50
2023-04-29T11:55:25.691Z,27.50
2023-04-29T11:56:25.896Z,25.30
2023-04-29T11:57:25.963Z,27.10
2023-04-29T11:58:26.025Z,27.80
2023-04-29T11:59:26.238Z,25.40
2023-04-29T12:00:26.355Z,27.70
2023-04-29T12:01:27.408Z,25.60
2023-04-29T12:02:26.716Z,23.70
2023-04-29T12:03:26.835Z,25.00
2023-04-29T12:04:26.939Z,27.00
2023-04-29T12:05:26.986Z,23.70
2023-04-29T12:06:26.941Z,26.10
2023-04-29T12:07:27.008Z,27.50
2023-04-29T12:08:27.074Z,26.30
2023-04-29T12:09:27.173Z,24.30
2023-04-29T12:10:27.251Z,24.20
2023-04-29T12:11:27.356Z,24.70
2023-04-29T12:12:27.486Z,24.00
2023-04-29T12:13:27.568Z,26.30
2023-04-29T12:14:27.685Z,28.10
2023-04-29T12:15:27.754Z,26.70
2023-04-29T12:16:27.875Z,24.10
2023-04-29T12:17:27.931Z,24.90
2023-04-29T12:18:27.999Z,25.80
2023-04-29T12:19:28.109Z,26.60
2023-04-29T12:20:28.209Z,23.90
2023-04-29T12:21:28.270Z,22.80
2023-04-29T12:22:28.361Z,23.50
2023-04-29T12:23:28.567Z,23.80
2023-04-29T12:24:28.546Z,26.00
2023-04-29T12:25:28.640Z,23.50
2023-04-29T12:26:28.737Z,26.30
2023-04-29T12:27:28.832Z,24.00
2023-04-29T12:28:28.946Z,26.20
2023-04-29T12:29:29.041Z,24.20
2023-04-29T12:30:29.119Z,25.80
2023-04-29T12:31:29.275Z,26.90
2023-04-29T12:32:29.308Z,24.70
2023-04-29T12:33:29.421Z,25.40
2023-04-29T12:34:29.475Z,24.40
2023-04-29T12:35:29.597Z,23.10
2023-04-29T12:36:29.673Z,22.30
2023-04-29T12:37:29.876Z,21.70
2023-04-29T12:38:29.980Z,22.80